Poplar Bluff, MO

3:15 PM CDT on October 25, 2014 (GMT -0500)
Cape Girardeau Regional | Change Station
CLOSE
Current Station
Airport
Location: Cape Girardeau,
Elevation: 341 ft
Nearby Weather Stations

Elev 341 ft 37.23 °N, 89.57 °W | Updated 22 minutes ago

Clear
Clear
81 °F
Feels Like 82 °F
N
6
Wind Variable Wind from WNW

Today
High -- | Low -- °F
--% Chance of Precip.
Yesterday
High -- | Low -- °F
Precip. -- in
7:18 AM 6:12 PM
Waxing Crescent, 4% visible
Pressure 29.99 in
Visibility 10.0 miles
Clouds Clear
Heat Index 82 °F
Dew Point 62 °F
Humidity 52%
Rainfall 0.00 in
Snow Depth Not available.
UV 3 out of 12
Pollen 2.40 out of 12
Air Quality Not available.
Flu Activity No Activity
METAR KCGI 251953Z 30005KT 10SM CLR 27/17 A3000 RMK AO2 SLP155 T02720167

More Conditions Fewer Conditions

Pressure 29.99 in
Visibility 10.0 miles
Clouds Clear
Heat Index 82 °F
Dew Point 62 °F
Humidity 52%
Rainfall 0.00 in
Snow Depth Not available.
UV 3 out of 12
Pollen 2.40 out of 12
Air Quality Not available.
Flu Activity No Activity
METAR KCGI 251953Z 30005KT 10SM CLR 27/17 A3000 RMK AO2 SLP155 T02720167

More Conditions Fewer Conditions

10-Day Weather Forecast

Almanac

Astronomy

Oct. 25, 2014 Rise Set
Actual Time 7:18 AM CDT 6:12 PM CDT
Civil Twilight 6:52 AM CDT 6:38 PM CDT
Nautical Twilight 6:21 AM CDT 7:09 PM CDT
Astronomical Twilight 5:51 AM CDT 7:39 PM CDT
Moon 8:55 AM CDT 7:37 PM CDT
Length of Visible Light 11h 46m
Length of Day
10h 53m
Tomorrow will be 2m 9s shorter.
Waxing Crescent, 4% of the Moon is Illuminated
Today
Waxing Crescent
Oct 30
First Quarter
Nov 6
Full
Nov 14
Last Quarter
Nov 22
New

Today's Extremes

State Highs State Lows

Community

WunderPhotos

Upload Photos

1,764,976 photos uploaded!

Nearby

Snow Depth

Station Depth Elevation
No new snow has been reported.

Earthquake Activity

City Distance Mag. Time & Date
No recent earthquake activity has been reported nearby.
Minimum magnitude displayed is 2.5.

Coastal Water Temperatures

Place Temperature
No Stations Reporting

Nearby Weather Stations